createdAt,value
2023-04-16T00:00:19.816Z,102327.00
2023-04-16T00:02:46.506Z,102317.50
2023-04-16T00:05:14.471Z,102324.75
2023-04-16T00:07:41.125Z,102316.69
2023-04-16T00:10:08.079Z,102322.38
2023-04-16T00:12:34.557Z,102318.28
2023-04-16T00:15:01.081Z,102331.88
2023-04-16T00:17:27.655Z,102333.25
2023-04-16T00:19:54.120Z,102327.38
2023-04-16T00:22:20.636Z,102325.13
2023-04-16T00:24:47.141Z,102331.00
2023-04-16T00:27:13.698Z,102331.63
2023-04-16T00:29:40.231Z,102323.94
2023-04-16T00:32:07.600Z,102333.25
2023-04-16T00:34:34.146Z,102328.81
2023-04-16T00:37:00.887Z,102329.00
2023-04-16T00:39:27.441Z,102326.56
2023-04-16T00:41:53.957Z,102331.00
2023-04-16T00:44:20.412Z,102327.75
2023-04-16T00:46:47.596Z,102326.94
2023-04-16T00:49:14.672Z,102337.66
2023-04-16T00:51:41.458Z,102327.56
2023-04-16T00:54:08.034Z,102327.13
2023-04-16T00:56:35.589Z,102317.63
2023-04-16T00:59:02.513Z,102316.19
2023-04-16T01:01:29.029Z,102323.88
2023-04-16T01:03:56.863Z,102327.94
2023-04-16T01:06:23.499Z,102317.44
2023-04-16T01:08:50.009Z,102330.97
2023-04-16T01:11:16.531Z,102323.31
2023-04-16T01:13:43.148Z,102334.84
2023-04-16T01:16:12.021Z,102325.50
2023-04-16T01:18:39.495Z,102328.38
2023-04-16T01:21:06.615Z,102327.56
2023-04-16T01:23:33.106Z,102323.69
2023-04-16T01:25:59.663Z,102328.75
2023-04-16T01:28:26.628Z,102331.22
2023-04-16T01:30:53.142Z,102328.75
2023-04-16T01:33:19.731Z,102328.34
2023-04-16T01:35:46.200Z,102335.22
2023-04-16T01:38:12.777Z,102336.03
2023-04-16T01:40:39.351Z,102337.03
2023-04-16T01:43:05.891Z,102344.53
2023-04-16T01:45:33.955Z,102329.97
2023-04-16T01:48:00.842Z,102335.84
2023-04-16T01:50:28.274Z,102337.66
2023-04-16T01:52:54.727Z,102336.66
2023-04-16T01:55:21.335Z,102336.66
2023-04-16T01:57:47.962Z,102341.28
2023-04-16T02:00:14.751Z,102338.47
2023-04-16T02:02:41.536Z,102337.28
2023-04-16T02:05:08.358Z,102333.66
2023-04-16T02:07:34.833Z,102342.97
2023-04-16T02:10:01.406Z,102335.84
2023-04-16T02:12:28.056Z,102341.53
2023-04-16T02:14:54.585Z,102342.16
2023-04-16T02:17:21.366Z,102337.28
2023-04-16T02:19:48.393Z,102337.09
2023-04-16T02:22:14.891Z,102329.38
2023-04-16T02:24:41.419Z,102336.91
2023-04-16T02:27:07.944Z,102326.38
2023-04-16T02:29:34.605Z,102338.53
2023-04-16T02:32:01.226Z,102333.25
2023-04-16T02:34:27.822Z,102329.63
2023-04-16T02:36:55.055Z,102334.06
2023-04-16T02:39:22.117Z,102339.78
2023-04-16T02:41:48.621Z,102334.50
2023-04-16T02:44:15.652Z,102337.94
2023-04-16T02:46:42.117Z,102338.13
2023-04-16T02:49:08.780Z,102338.13
2023-04-16T02:51:35.461Z,102342.41
2023-04-16T02:54:03.120Z,102337.31
2023-04-16T02:56:29.673Z,102334.06
2023-04-16T02:58:56.419Z,102338.53
2023-04-16T03:01:22.936Z,102335.88
2023-04-16T03:03:49.462Z,102344.41
2023-04-16T03:06:16.178Z,102337.31
2023-04-16T03:08:42.609Z,102344.84
2023-04-16T03:11:09.136Z,102342.84
2023-04-16T03:13:36.336Z,102343.66
2023-04-16T03:16:03.021Z,102337.75
2023-04-16T03:18:29.685Z,102352.34
2023-04-16T03:20:56.171Z,102352.34
2023-04-16T03:23:22.674Z,102352.53
2023-04-16T03:25:49.123Z,102361.44
2023-04-16T03:28:15.682Z,102354.53
2023-04-16T03:30:42.228Z,102358.19
2023-04-16T03:33:08.681Z,102356.78
2023-04-16T03:35:35.403Z,102358.38
2023-04-16T03:38:01.906Z,102352.72
2023-04-16T03:40:28.380Z,102362.06
2023-04-16T03:42:54.849Z,102366.50
2023-04-16T03:45:21.345Z,102358.81
2023-04-16T03:47:52.488Z,102365.69
2023-04-16T03:50:19.634Z,102368.31
2023-04-16T03:52:46.976Z,102363.25
2023-04-16T03:55:13.933Z,102360.19
2023-04-16T03:57:41.613Z,102364.44
2023-04-16T04:00:09.096Z,102358.38
2023-04-16T04:02:35.799Z,102364.06
2023-04-16T04:05:02.554Z,102363.06
2023-04-16T04:07:29.362Z,102368.50
2023-04-16T04:09:55.842Z,102369.69
2023-04-16T04:12:22.308Z,102375.78
2023-04-16T04:14:48.762Z,102362.81
2023-04-16T04:17:15.563Z,102362.63
2023-04-16T04:19:47.023Z,102372.13
2023-04-16T04:22:17.340Z,102367.69
2023-04-16T04:24:43.843Z,102376.19
2023-04-16T04:27:10.482Z,102374.75
2023-04-16T04:29:36.951Z,102370.06
2023-04-16T04:32:03.506Z,102376.97
2023-04-16T04:34:30.072Z,102385.03
2023-04-16T04:36:56.737Z,102385.03
2023-04-16T04:39:23.422Z,102378.97
2023-04-16T04:41:49.925Z,102380.59
2023-04-16T04:44:16.446Z,102390.50
2023-04-16T04:46:42.886Z,102392.50
2023-04-16T04:49:09.705Z,102392.50
2023-04-16T04:51:36.401Z,102401.19
2023-04-16T04:54:02.909Z,102401.38
2023-04-16T04:56:29.418Z,102399.13
2023-04-16T04:58:56.234Z,102398.75
2023-04-16T05:01:22.764Z,102395.50
2023-04-16T05:03:49.345Z,102391.88
2023-04-16T05:06:16.463Z,102395.13
2023-04-16T05:08:42.985Z,102395.31
2023-04-16T05:11:09.516Z,102396.13
2023-04-16T05:13:36.018Z,102395.31
2023-04-16T05:16:02.618Z,102399.56
2023-04-16T05:18:29.087Z,102400.38
2023-04-16T05:20:55.944Z,102405.63
2023-04-16T05:23:22.449Z,102404.63
2023-04-16T05:25:48.896Z,102398.38
2023-04-16T05:28:15.389Z,102405.63
2023-04-16T05:30:41.962Z,102400.38
2023-04-16T05:33:08.516Z,102404.81
2023-04-16T05:35:35.162Z,102404.81
2023-04-16T05:38:01.661Z,102406.25
2023-04-16T05:40:28.177Z,102407.88
2023-04-16T05:42:54.667Z,102411.53
2023-04-16T05:45:21.199Z,102413.78
2023-04-16T05:47:47.810Z,102419.03
2023-04-16T05:50:14.403Z,102414.16
2023-04-16T05:52:40.823Z,102427.13
2023-04-16T05:55:07.547Z,102425.91
2023-04-16T05:57:34.069Z,102432.00
2023-04-16T06:00:00.562Z,102429.38
2023-04-16T06:02:27.202Z,102430.19
2023-04-16T06:04:53.790Z,102431.63
2023-04-16T06:07:20.244Z,102426.53
2023-04-16T06:09:46.754Z,102426.16
2023-04-16T06:12:13.315Z,102436.31
2023-04-16T06:14:39.848Z,102432.88
2023-04-16T06:17:06.396Z,102444.63
2023-04-16T06:19:32.839Z,102437.75
2023-04-16T06:21:59.486Z,102441.00
2023-04-16T06:24:26.035Z,102439.38
2023-04-16T06:26:52.884Z,102446.47
2023-04-16T06:29:19.348Z,102454.16
2023-04-16T06:31:45.936Z,102449.09
2023-04-16T06:34:12.470Z,102457.22
2023-04-16T06:36:38.915Z,102452.97
2023-04-16T06:39:05.464Z,102460.47
2023-04-16T06:41:32.053Z,102460.84
2023-04-16T06:43:58.535Z,102457.22
2023-04-16T06:46:25.141Z,102458.22
2023-04-16T06:48:51.831Z,102463.94
2023-04-16T06:51:18.362Z,102454.84
2023-04-16T06:53:45.019Z,102461.72
2023-04-16T06:56:11.525Z,102465.00
2023-04-16T06:58:37.991Z,102463.34
2023-04-16T07:01:05.659Z,102472.25
2023-04-16T07:03:32.544Z,102472.88
2023-04-16T07:05:59.114Z,102477.75
2023-04-16T07:08:25.866Z,102475.94
2023-04-16T07:10:53.992Z,102475.13
2023-04-16T07:13:21.630Z,102486.09
2023-04-16T07:15:48.287Z,102480.38
2023-04-16T07:18:14.870Z,102491.16
2023-04-16T07:20:41.447Z,102483.47
2023-04-16T07:23:07.995Z,102490.97
2023-04-16T07:25:34.471Z,102494.59
2023-04-16T07:28:01.014Z,102483.66
2023-04-16T07:30:33.958Z,102491.78
2023-04-16T07:33:02.679Z,102496.06
2023-04-16T07:35:29.480Z,102500.50
2023-04-16T07:37:55.961Z,102504.56
2023-04-16T07:40:23.826Z,102500.31
2023-04-16T07:42:50.892Z,102505.19
2023-04-16T07:45:18.190Z,102506.81
2023-04-16T07:47:45.809Z,102509.22
2023-04-16T07:50:12.884Z,102509.66
2023-04-16T07:52:44.189Z,102512.53
2023-04-16T07:55:10.819Z,102507.28
2023-04-16T07:57:37.438Z,102516.03
2023-04-16T08:00:05.067Z,102516.09
2023-04-16T08:02:32.014Z,102523.75
2023-04-16T08:04:59.113Z,102525.75
2023-04-16T08:07:25.693Z,102525.13
2023-04-16T08:09:52.622Z,102528.41
2023-04-16T08:12:19.657Z,102530.22
2023-04-16T08:14:46.432Z,102534.47
2023-04-16T08:17:13.846Z,102532.84
2023-04-16T08:19:40.375Z,102547.06
2023-04-16T08:22:06.899Z,102545.88
2023-04-16T08:24:33.357Z,102546.06
2023-04-16T08:27:11.249Z,102550.88
2023-04-16T08:29:44.539Z,102548.69
2023-04-16T08:32:11.600Z,102553.56
2023-04-16T08:34:38.187Z,102551.38
2023-04-16T08:37:04.671Z,102551.19
2023-04-16T08:39:31.326Z,102554.00
2023-04-16T08:41:58.892Z,102558.91
2023-04-16T08:44:28.388Z,102558.31
2023-04-16T08:46:58.270Z,102566.81
2023-04-16T08:49:28.481Z,102563.38
2023-04-16T08:51:56.267Z,102559.75
2023-04-16T08:54:32.396Z,102573.16
2023-04-16T08:57:02.263Z,102576.78
2023-04-16T08:59:29.577Z,102569.88
2023-04-16T09:02:00.583Z,102562.63
2023-04-16T09:04:30.786Z,102559.97
2023-04-16T09:06:58.851Z,102569.50
2023-04-16T09:09:28.800Z,102570.50
2023-04-16T09:11:56.180Z,102573.38
2023-04-16T09:14:22.703Z,102571.63
2023-04-16T09:16:49.487Z,102569.63
2023-04-16T09:19:16.213Z,102577.75
2023-04-16T09:21:46.939Z,102572.47
2023-04-16T09:24:13.657Z,102576.56
2023-04-16T09:26:43.340Z,102579.19
2023-04-16T09:29:10.260Z,102575.34
2023-04-16T09:31:37.292Z,102580.03
2023-04-16T09:34:09.119Z,102582.66
2023-04-16T09:36:36.769Z,102596.25
2023-04-16T09:39:04.184Z,102588.75
2023-04-16T09:41:33.184Z,102590.38
2023-04-16T09:44:02.035Z,102601.16
2023-04-16T09:46:34.933Z,102599.72
2023-04-16T09:49:14.887Z,102599.91
2023-04-16T09:51:42.666Z,102607.41
2023-04-16T09:54:09.790Z,102603.78
2023-04-16T09:56:43.961Z,102609.44
2023-04-16T09:59:20.979Z,102618.34
2023-04-16T10:01:49.583Z,102622.22
2023-04-16T10:04:16.711Z,102619.59
2023-04-16T10:06:43.478Z,102613.94
2023-04-16T10:09:10.880Z,102616.38
2023-04-16T10:11:37.879Z,102612.75
2023-04-16T10:14:04.362Z,102621.25
2023-04-16T10:16:31.076Z,102611.97
2023-04-16T10:18:59.146Z,102622.94
2023-04-16T10:21:33.040Z,102612.16
2023-04-16T10:24:00.444Z,102613.16
2023-04-16T10:26:28.510Z,102613.41
2023-04-16T10:28:55.803Z,102616.28
2023-04-16T10:31:23.118Z,102620.53
2023-04-16T10:33:50.147Z,102615.66
2023-04-16T10:36:23.834Z,102619.72
2023-04-16T10:38:54.490Z,102620.53
2023-04-16T10:41:21.168Z,102618.72
2023-04-16T10:43:51.260Z,102617.34
2023-04-16T10:46:31.886Z,102622.59
2023-04-16T10:49:11.953Z,102629.13
2023-04-16T10:51:38.700Z,102623.84
2023-04-16T10:54:08.112Z,102631.13
2023-04-16T10:56:36.182Z,102630.75
2023-04-16T10:59:13.336Z,102627.31
2023-04-16T11:01:44.743Z,102634.81
2023-04-16T11:04:20.447Z,102625.09
2023-04-16T11:07:11.587Z,102627.97
2023-04-16T11:09:53.124Z,102632.69
2023-04-16T11:12:21.172Z,102630.03
2023-04-16T11:14:52.950Z,102626.38
2023-04-16T11:17:20.835Z,102636.53
2023-04-16T11:19:48.129Z,102624.34
2023-04-16T11:22:17.306Z,102635.31
2023-04-16T11:24:45.633Z,102633.69
2023-04-16T11:27:13.952Z,102626.19
2023-04-16T11:29:40.598Z,102625.19
2023-04-16T11:32:07.298Z,102630.47
2023-04-16T11:34:33.899Z,102632.50
2023-04-16T11:37:00.592Z,102631.44
2023-04-16T11:39:27.208Z,102638.34
2023-04-16T11:41:53.701Z,102636.72
2023-04-16T11:44:22.795Z,102633.06
2023-04-16T11:46:50.622Z,102634.47
2023-04-16T11:49:20.166Z,102634.84
2023-04-16T11:51:47.466Z,102640.75
2023-04-16T11:54:21.201Z,102638.97
2023-04-16T11:56:49.809Z,102636.94
2023-04-16T11:59:16.551Z,102646.69
2023-04-16T12:01:49.628Z,102639.00
2023-04-16T12:04:19.155Z,102647.78
2023-04-16T12:07:05.323Z,102652.69
2023-04-16T12:09:31.820Z,102643.53
2023-04-16T12:11:58.350Z,102648.81
2023-04-16T12:14:24.857Z,102645.56
2023-04-16T12:16:51.468Z,102638.28
2023-04-16T12:19:18.363Z,102652.09
2023-04-16T12:21:46.762Z,102656.19
2023-04-16T12:24:15.982Z,102655.56
2023-04-16T12:26:45.426Z,102654.97
2023-04-16T12:29:16.198Z,102665.09
2023-04-16T12:31:43.114Z,102655.56
2023-04-16T12:34:10.463Z,102655.75
2023-04-16T12:36:37.897Z,102660.66
2023-04-16T12:39:05.131Z,102661.47
2023-04-16T12:41:31.724Z,102664.31
2023-04-16T12:44:14.384Z,102662.28
2023-04-16T12:46:42.310Z,102662.28
2023-04-16T12:49:10.947Z,102660.25
2023-04-16T12:51:38.649Z,102668.59
2023-04-16T12:54:09.960Z,102668.59
2023-04-16T12:56:36.525Z,102665.72
2023-04-16T12:59:03.610Z,102666.53
2023-04-16T13:01:30.501Z,102661.84
2023-04-16T13:03:57.271Z,102662.66
2023-04-16T13:06:24.348Z,102661.84
2023-04-16T13:08:50.802Z,102658.44
2023-04-16T13:11:17.473Z,102666.56
2023-04-16T13:13:44.019Z,102652.34
2023-04-16T13:16:11.522Z,102660.88
2023-04-16T13:18:40.132Z,102659.09
2023-04-16T13:21:06.994Z,102653.81
2023-04-16T13:23:34.821Z,102662.16
2023-04-16T13:26:01.398Z,102661.72
2023-04-16T13:28:28.031Z,102646.91
2023-04-16T13:30:54.763Z,102658.28
2023-04-16T13:33:21.616Z,102654.44
2023-04-16T13:35:49.859Z,102648.75
2023-04-16T13:38:17.050Z,102655.88
2023-04-16T13:40:43.927Z,102654.44
2023-04-16T13:43:10.552Z,102658.50
2023-04-16T13:45:38.056Z,102656.47
2023-04-16T13:48:04.944Z,102661.94
2023-04-16T13:50:31.557Z,102647.72
2023-04-16T13:52:58.146Z,102651.97
2023-04-16T13:55:34.365Z,102668.03
2023-04-16T13:58:01.130Z,102658.69
2023-04-16T14:00:27.792Z,102658.06
2023-04-16T14:02:54.537Z,102662.56
2023-04-16T14:05:23.752Z,102655.03
2023-04-16T14:07:51.755Z,102656.47
2023-04-16T14:10:18.639Z,102660.34
2023-04-16T14:12:45.572Z,102657.69
2023-04-16T14:15:14.647Z,102659.09
2023-04-16T14:17:43.302Z,102651.78
2023-04-16T14:20:13.929Z,102657.91
2023-04-16T14:22:42.432Z,102647.75
2023-04-16T14:25:09.204Z,102661.19
2023-04-16T14:27:36.052Z,102652.84
2023-04-16T14:30:02.681Z,102655.06
2023-04-16T14:32:29.429Z,102648.56
2023-04-16T14:34:56.200Z,102657.91
2023-04-16T14:37:22.843Z,102645.53
2023-04-16T14:39:50.485Z,102651.41
2023-04-16T14:42:17.059Z,102652.22
2023-04-16T14:44:43.590Z,102653.44
2023-04-16T14:47:10.489Z,102657.50
2023-04-16T14:49:37.016Z,102645.72
2023-04-16T14:52:05.712Z,102652.41
2023-04-16T14:54:33.479Z,102651.00
2023-04-16T14:57:00.090Z,102642.06
2023-04-16T14:59:26.630Z,102645.53
2023-04-16T15:01:56.772Z,102635.56
2023-04-16T15:04:24.604Z,102636.38
2023-04-16T15:06:51.556Z,102643.84
2023-04-16T15:09:18.057Z,102636.78
2023-04-16T15:11:44.569Z,102635.94
2023-04-16T15:14:11.388Z,102638.97
2023-04-16T15:16:40.334Z,102640.00
2023-04-16T15:19:06.940Z,102644.03
2023-04-16T15:21:33.514Z,102635.50
2023-04-16T15:23:59.979Z,102634.66
2023-04-16T15:26:26.516Z,102639.78
2023-04-16T15:28:53.026Z,102646.09
2023-04-16T15:31:21.014Z,102646.50
2023-04-16T15:33:48.640Z,102639.63
2023-04-16T15:36:15.557Z,102642.06
2023-04-16T15:38:42.083Z,102642.28
2023-04-16T15:41:09.570Z,102648.56
2023-04-16T15:43:36.067Z,102643.06
2023-04-16T15:46:02.734Z,102647.16
2023-04-16T15:48:29.410Z,102646.53
2023-04-16T15:50:56.041Z,102640.84
2023-04-16T15:53:22.736Z,102647.13
2023-04-16T15:55:53.812Z,102635.38
2023-04-16T15:58:21.026Z,102645.75
2023-04-16T16:00:50.725Z,102640.88
2023-04-16T16:03:20.663Z,102641.25
2023-04-16T16:05:48.151Z,102636.38
2023-04-16T16:08:15.732Z,102641.44
2023-04-16T16:10:42.514Z,102647.94
2023-04-16T16:13:13.082Z,102636.78
2023-04-16T16:15:43.044Z,102643.69
2023-04-16T16:18:10.022Z,102639.03
2023-04-16T16:20:36.685Z,102641.88
2023-04-16T16:23:03.514Z,102643.28
2023-04-16T16:25:30.441Z,102638.19
2023-04-16T16:27:57.176Z,102643.47
2023-04-16T16:30:23.674Z,102646.53
2023-04-16T16:32:50.821Z,102647.94
2023-04-16T16:35:17.376Z,102646.09
2023-04-16T16:37:43.925Z,102643.69
2023-04-16T16:40:11.206Z,102648.13
2023-04-16T16:42:37.816Z,102641.03
2023-04-16T16:45:06.039Z,102643.06
2023-04-16T16:47:33.057Z,102649.34
2023-04-16T16:50:01.417Z,102636.97
2023-04-16T16:52:29.327Z,102651.41
2023-04-16T16:54:56.896Z,102650.78
2023-04-16T16:57:24.098Z,102651.00
2023-04-16T16:59:51.048Z,102653.41
2023-04-16T17:02:18.379Z,102655.44
2023-04-16T17:04:45.043Z,102660.88
2023-04-16T17:07:11.905Z,102654.56
2023-04-16T17:09:38.972Z,102664.31
2023-04-16T17:12:06.129Z,102659.25
2023-04-16T17:14:33.062Z,102659.84
2023-04-16T17:16:59.759Z,102663.25
2023-04-16T17:19:27.443Z,102658.28
2023-04-16T17:21:54.105Z,102664.34
2023-04-16T17:24:20.712Z,102674.50
2023-04-16T17:26:47.228Z,102666.56
2023-04-16T17:29:13.764Z,102670.41
2023-04-16T17:31:40.453Z,102672.63
2023-04-16T17:34:06.975Z,102686.63
2023-04-16T17:36:33.524Z,102678.25
2023-04-16T17:39:00.044Z,102687.22
2023-04-16T17:41:26.504Z,102681.50
2023-04-16T17:43:53.103Z,102694.88
2023-04-16T17:46:19.641Z,102696.91
2023-04-16T17:48:47.909Z,102696.09
2023-04-16T17:51:16.420Z,102703.19
2023-04-16T17:53:43.603Z,102705.81
2023-04-16T17:56:13.220Z,102698.28
2023-04-16T17:58:39.998Z,102709.84
2023-04-16T18:01:06.645Z,102705.75
2023-04-16T18:03:33.317Z,102707.34
2023-04-16T18:06:00.255Z,102714.41
2023-04-16T18:08:26.915Z,102708.53
2023-04-16T18:10:55.120Z,102711.88
2023-04-16T18:13:21.658Z,102721.78
2023-04-16T18:15:48.366Z,102714.44
2023-04-16T18:18:15.014Z,102709.19
2023-04-16T18:20:41.645Z,102719.91
2023-04-16T18:23:08.174Z,102719.25
2023-04-16T18:25:35.382Z,102718.00
2023-04-16T18:28:03.591Z,102715.34
2023-04-16T18:30:30.437Z,102723.88
2023-04-16T18:33:25.343Z,102732.16
2023-04-16T18:35:43.464Z,102738.88
2023-04-16T18:38:09.978Z,102735.44
2023-04-16T18:40:37.285Z,102739.63
2023-04-16T18:43:04.143Z,102739.38
2023-04-16T18:45:30.885Z,102742.19
2023-04-16T18:48:02.815Z,102743.38
2023-04-16T18:50:29.811Z,102751.28
2023-04-16T18:52:56.321Z,102750.28
2023-04-16T18:55:22.942Z,102756.75
2023-04-16T18:57:49.798Z,102757.13
2023-04-16T19:00:16.612Z,102752.41
2023-04-16T19:02:43.231Z,102751.97
2023-04-16T19:05:10.027Z,102757.41
2023-04-16T19:07:37.598Z,102757.56
2023-04-16T19:10:05.264Z,102763.00
2023-04-16T19:12:32.437Z,102766.63
2023-04-16T19:14:59.251Z,102758.38
2023-04-16T19:17:26.554Z,102757.75
2023-04-16T19:19:53.367Z,102761.00
2023-04-16T19:22:19.892Z,102765.00
2023-04-16T19:24:46.717Z,102768.63
2023-04-16T19:27:13.363Z,102758.75
2023-04-16T19:29:40.889Z,102760.22
2023-04-16T19:32:07.471Z,102760.00
2023-04-16T19:34:35.021Z,102756.09
2023-04-16T19:37:01.813Z,102749.66
2023-04-16T19:39:28.429Z,102763.25
2023-04-16T19:41:54.959Z,102755.09
2023-04-16T19:44:23.164Z,102758.56
2023-04-16T19:46:49.808Z,102761.38
2023-04-16T19:49:16.435Z,102765.00
2023-04-16T19:51:43.149Z,102771.63
2023-04-16T19:54:09.844Z,102764.09
2023-04-16T19:56:38.980Z,102762.09
2023-04-16T19:59:05.525Z,102769.38
2023-04-16T20:01:32.298Z,102767.75
2023-04-16T20:03:58.944Z,102771.63
2023-04-16T20:06:26.295Z,102766.63
2023-04-16T20:08:56.734Z,102765.56
2023-04-16T20:11:25.323Z,102771.44
2023-04-16T20:13:51.958Z,102773.28
2023-04-16T20:16:23.780Z,102770.63
2023-04-16T20:18:54.117Z,102776.53
2023-04-16T20:21:21.658Z,102774.91
2023-04-16T20:23:48.551Z,102771.91
2023-04-16T20:26:16.705Z,102770.63
2023-04-16T20:28:43.271Z,102772.09
2023-04-16T20:31:09.908Z,102773.53
2023-04-16T20:33:36.480Z,102772.72
2023-04-16T20:36:02.982Z,102771.63
2023-04-16T20:38:32.158Z,102773.72
2023-04-16T20:41:12.135Z,102768.63
2023-04-16T20:43:41.339Z,102772.44
2023-04-16T20:46:08.645Z,102770.00
2023-04-16T20:48:35.293Z,102764.47
2023-04-16T20:51:03.899Z,102764.47
2023-04-16T20:53:32.081Z,102766.94
2023-04-16T20:56:02.520Z,102765.84
2023-04-16T20:58:29.697Z,102769.22
2023-04-16T21:00:57.409Z,102759.22
2023-04-16T21:03:24.739Z,102755.19
2023-04-16T21:05:55.827Z,102762.00
2023-04-16T21:08:23.461Z,102758.44
2023-04-16T21:10:50.530Z,102756.47
2023-04-16T21:13:17.323Z,102756.00
2023-04-16T21:15:45.538Z,102749.09
2023-04-16T21:18:12.987Z,102758.91
2023-04-16T21:20:39.865Z,102754.09
2023-04-16T21:23:06.784Z,102753.09
2023-04-16T21:25:33.570Z,102745.38
2023-04-16T21:28:00.152Z,102756.53
2023-04-16T21:30:27.097Z,102752.28
2023-04-16T21:32:53.599Z,102754.00
2023-04-16T21:35:20.225Z,102748.09
2023-04-16T21:37:46.744Z,102749.28
2023-04-16T21:40:13.461Z,102750.38
2023-04-16T21:42:42.093Z,102750.75
2023-04-16T21:45:09.538Z,102757.09
2023-04-16T21:47:37.054Z,102756.72
2023-04-16T21:50:04.158Z,102758.19
2023-04-16T21:52:32.806Z,102761.81
2023-04-16T21:55:00.210Z,102753.09
2023-04-16T21:57:26.769Z,102761.00
2023-04-16T21:59:53.435Z,102758.72
2023-04-16T22:02:20.058Z,102766.63
2023-04-16T22:04:46.917Z,102762.34
2023-04-16T22:07:13.481Z,102757.09
2023-04-16T22:09:40.795Z,102757.00
2023-04-16T22:12:10.259Z,102763.34
2023-04-16T22:14:42.065Z,102754.66
2023-04-16T22:17:12.888Z,102753.81
2023-04-16T22:19:39.482Z,102757.81
2023-04-16T22:22:05.987Z,102756.53
2023-04-16T22:24:32.566Z,102749.19
2023-04-16T22:26:59.168Z,102757.09
2023-04-16T22:29:25.868Z,102751.81
2023-04-16T22:31:52.538Z,102748.75
2023-04-16T22:34:19.078Z,102750.56
2023-04-16T22:36:45.997Z,102755.00
2023-04-16T22:39:12.599Z,102746.84
2023-04-16T22:41:39.207Z,102758.00
2023-04-16T22:44:05.858Z,102757.16
2023-04-16T22:46:32.593Z,102752.63
2023-04-16T22:48:59.209Z,102747.66
2023-04-16T22:51:25.681Z,102757.53
2023-04-16T22:53:52.284Z,102753.25
2023-04-16T22:56:19.572Z,102763.44
2023-04-16T22:58:46.500Z,102754.97
2023-04-16T23:01:13.132Z,102757.78
2023-04-16T23:03:39.694Z,102753.34
2023-04-16T23:06:06.694Z,102749.91
2023-04-16T23:08:33.274Z,102759.06
2023-04-16T23:10:59.825Z,102742.81
2023-04-16T23:13:26.307Z,102761.50
2023-04-16T23:15:52.915Z,102748.09
2023-04-16T23:18:19.529Z,102756.78
2023-04-16T23:20:45.995Z,102758.16
2023-04-16T23:23:12.506Z,102759.78
2023-04-16T23:25:41.211Z,102760.59
2023-04-16T23:28:07.706Z,102760.78
2023-04-16T23:30:34.141Z,102759.13
2023-04-16T23:33:00.724Z,102766.66
2023-04-16T23:35:27.199Z,102766.66
2023-04-16T23:37:53.782Z,102768.94
2023-04-16T23:40:20.616Z,102765.69
2023-04-16T23:42:47.127Z,102758.16
2023-04-16T23:45:13.619Z,102768.47
2023-04-16T23:47:40.279Z,102766.66
2023-04-16T23:50:07.309Z,102777.66
2023-04-16T23:52:33.992Z,102776.38
2023-04-16T23:55:00.742Z,102773.22
2023-04-16T23:57:27.190Z,102772.75
2023-04-16T23:59:53.705Z,102763.75
